createdAt,value
2018-12-05T00:00:35.883Z,94832.39
2018-12-05T00:03:04.662Z,94844.73
2018-12-05T00:05:33.435Z,94847.02
2018-12-05T00:08:02.201Z,94846.19
2018-12-05T00:10:30.941Z,94850.58
2018-12-05T00:12:59.644Z,94853.80
2018-12-05T00:15:28.370Z,94856.06
2018-12-05T00:17:57.128Z,94855.92
2018-12-05T00:20:32.296Z,94858.35
2018-12-05T00:23:01.048Z,94861.91
2018-12-05T00:25:29.792Z,94864.02
2018-12-05T00:27:58.530Z,94868.24
2018-12-05T00:30:27.393Z,94865.15
2018-12-05T00:32:56.184Z,94873.57
2018-12-05T00:35:24.946Z,94865.31
2018-12-05T00:37:53.791Z,94876.99
2018-12-05T00:40:22.677Z,94876.02
2018-12-05T00:42:51.477Z,94871.64
2018-12-05T00:45:20.292Z,94872.61
2018-12-05T00:47:49.058Z,94874.05
2018-12-05T00:50:17.898Z,94877.47
2018-12-05T00:52:46.704Z,94877.80
2018-12-05T00:55:15.495Z,94870.83
2018-12-05T00:57:44.279Z,94871.63
2018-12-05T01:00:13.562Z,94872.94
2018-12-05T01:02:42.903Z,94871.94
2018-12-05T01:05:11.690Z,94872.44
2018-12-05T01:07:40.424Z,94872.90
2018-12-05T01:10:09.659Z,94877.13
2018-12-05T01:12:38.402Z,94872.42
2018-12-05T01:15:08.383Z,94865.61
2018-12-05T01:17:37.095Z,94873.56
2018-12-05T01:20:06.661Z,94866.94
2018-12-05T01:22:35.858Z,94863.05
2018-12-05T01:25:06.048Z,94862.41
2018-12-05T01:27:34.862Z,94868.89
2018-12-05T01:30:08.013Z,94871.34
2018-12-05T01:32:36.744Z,94870.52
2018-12-05T01:35:05.974Z,94874.73
2018-12-05T01:37:34.770Z,94873.61
2018-12-05T01:40:04.326Z,94871.66
2018-12-05T01:42:33.497Z,94872.47
2018-12-05T01:45:02.238Z,94874.59
2018-12-05T01:47:31.061Z,94872.96
2018-12-05T01:50:00.042Z,94879.61
2018-12-05T01:52:28.791Z,94880.13
2018-12-05T01:54:57.572Z,94881.73
2018-12-05T01:57:26.330Z,94880.75
2018-12-05T01:59:55.121Z,94880.59
2018-12-05T02:02:23.876Z,94881.41
2018-12-05T02:04:52.644Z,94887.09
2018-12-05T02:07:21.713Z,94890.35
2018-12-05T02:09:50.468Z,94884.34
2018-12-05T02:12:19.295Z,94884.98
2018-12-05T02:14:48.041Z,94886.59
2018-12-05T02:17:16.895Z,94888.88
2018-12-05T02:19:45.680Z,94888.05
2018-12-05T02:22:14.476Z,94887.24
2018-12-05T02:24:43.730Z,94891.45
2018-12-05T02:27:12.594Z,94897.66
2018-12-05T02:29:46.675Z,94900.24
2018-12-05T02:32:15.853Z,94902.69
2018-12-05T02:34:44.613Z,94905.89
2018-12-05T02:37:13.425Z,94907.85
2018-12-05T02:39:42.169Z,94905.25
2018-12-05T02:42:10.911Z,94900.56
2018-12-05T02:44:39.712Z,94901.04
2018-12-05T02:47:08.511Z,94907.68
2018-12-05T02:49:37.283Z,94902.18
2018-12-05T02:52:06.656Z,94904.13
2018-12-05T02:54:35.400Z,94903.32
2018-12-05T02:57:04.139Z,94900.72
2018-12-05T02:59:32.858Z,94904.59
2018-12-05T03:02:01.712Z,94914.19
2018-12-05T03:04:30.471Z,94913.53
2018-12-05T03:06:59.221Z,94913.85
2018-12-05T03:09:27.997Z,94911.92
2018-12-05T03:11:56.801Z,94921.98
2018-12-05T03:14:25.513Z,94923.91
2018-12-05T03:16:54.736Z,94924.71
2018-12-05T03:19:23.529Z,94925.36
2018-12-05T03:21:52.239Z,94928.44
2018-12-05T03:24:20.963Z,94931.83
2018-12-05T03:26:49.681Z,94935.25
2018-12-05T03:29:18.386Z,94937.98
2018-12-05T03:31:47.134Z,94939.94
2018-12-05T03:34:15.833Z,94938.80
2018-12-05T03:36:44.588Z,94945.65
2018-12-05T03:39:13.298Z,94944.99
2018-12-05T03:41:42.008Z,94943.88
2018-12-05T03:44:10.715Z,94946.97
2018-12-05T03:46:39.489Z,94949.08
2018-12-05T03:49:08.187Z,94951.34
2018-12-05T03:51:36.899Z,94947.28
2018-12-05T03:54:06.144Z,94957.36
2018-12-05T03:56:34.884Z,94954.44
2018-12-05T03:59:03.623Z,94956.72
2018-12-05T04:01:32.337Z,94959.64
2018-12-05T04:04:01.080Z,94959.95
2018-12-05T04:06:30.333Z,94965.14
2018-12-05T04:08:59.065Z,94960.27
2018-12-05T04:11:27.833Z,94961.10
2018-12-05T04:13:56.572Z,94961.27
2018-12-05T04:16:25.263Z,94964.82
2018-12-05T04:18:53.976Z,94968.57
2018-12-05T04:21:23.224Z,94966.94
2018-12-05T04:23:51.997Z,94974.39
2018-12-05T04:26:20.819Z,94973.42
2018-12-05T04:28:49.559Z,94978.14
2018-12-05T04:31:18.306Z,94981.39
2018-12-05T04:33:47.317Z,94981.72
2018-12-05T04:36:16.041Z,94983.03
2018-12-05T04:38:49.291Z,94981.05
2018-12-05T04:41:18.067Z,94983.98
2018-12-05T04:43:46.901Z,94986.06
2018-12-05T04:46:15.632Z,94984.28
2018-12-05T04:48:44.387Z,94986.55
2018-12-05T04:51:13.086Z,94985.91
2018-12-05T04:53:41.880Z,94990.30
2018-12-05T04:56:10.759Z,94996.97
2018-12-05T04:58:39.519Z,94998.75
2018-12-05T05:01:08.322Z,95002.98
2018-12-05T05:03:37.184Z,95006.08
2018-12-05T05:06:06.552Z,95008.36
2018-12-05T05:08:35.315Z,95009.79
2018-12-05T05:11:04.076Z,95010.28
2018-12-05T05:13:32.846Z,95012.89
2018-12-05T05:16:01.618Z,95014.81
2018-12-05T05:18:30.351Z,95016.41
2018-12-05T05:20:59.158Z,95009.57
2018-12-05T05:23:27.959Z,95014.39
2018-12-05T05:25:56.748Z,95019.95
2018-12-05T05:28:25.581Z,95031.02
2018-12-05T05:30:54.346Z,95027.11
2018-12-05T05:33:23.128Z,95031.02
2018-12-05T05:35:51.955Z,95037.53
2018-12-05T05:38:20.752Z,95032.48
2018-12-05T05:40:50.863Z,95037.17
2018-12-05T05:43:19.682Z,95037.86
2018-12-05T05:45:49.959Z,95044.33
2018-12-05T05:48:18.763Z,95055.08
2018-12-05T05:50:47.596Z,95053.41
2018-12-05T05:53:16.390Z,95056.63
2018-12-05T05:55:45.770Z,95064.64
2018-12-05T05:58:15.084Z,95053.73
2018-12-05T06:00:43.892Z,95072.30
2018-12-05T06:03:12.736Z,95077.67
2018-12-05T06:05:41.505Z,95082.06
2018-12-05T06:08:10.269Z,95092.48
2018-12-05T06:10:39.709Z,95092.16
2018-12-05T06:13:08.454Z,95101.73
2018-12-05T06:15:37.250Z,95097.50
2018-12-05T06:20:40.288Z,95114.95
2018-12-05T06:23:09.132Z,95112.18
2018-12-05T06:25:37.955Z,95115.59
2018-12-05T06:28:06.753Z,95133.51
2018-12-05T06:30:35.693Z,95142.16
2018-12-05T06:33:04.540Z,95147.18
2018-12-05T06:35:33.384Z,95139.06
2018-12-05T06:38:02.165Z,95154.88
2018-12-05T06:40:30.965Z,95160.87
2018-12-05T06:42:59.791Z,95168.05
2018-12-05T06:45:28.541Z,95172.30
2018-12-05T06:47:57.318Z,95172.45
2018-12-05T06:50:26.133Z,95181.08
2018-12-05T06:52:54.896Z,95185.14
2018-12-05T06:55:23.726Z,95189.06
2018-12-05T06:57:52.520Z,95205.47
2018-12-05T07:00:21.366Z,95199.13
2018-12-05T07:02:50.306Z,95204.18
2018-12-05T07:05:19.133Z,95213.91
2018-12-05T07:07:47.877Z,95218.80
2018-12-05T07:10:16.611Z,95233.75
2018-12-05T07:12:45.380Z,95222.72
2018-12-05T07:15:14.063Z,95218.97
2018-12-05T07:17:42.829Z,95213.87
2018-12-05T07:20:11.539Z,95225.73
2018-12-05T07:22:41.106Z,95221.67
2018-12-05T07:25:09.809Z,95217.30
2018-12-05T07:27:38.570Z,95226.38
2018-12-05T07:30:09.759Z,95217.42
2018-12-05T07:32:38.433Z,95229.48
2018-12-05T07:35:08.003Z,95222.64
2018-12-05T07:37:36.789Z,95232.36
2018-12-05T07:40:06.043Z,95234.65
2018-12-05T07:42:34.815Z,95223.11
2018-12-05T07:45:04.390Z,95227.48
2018-12-05T07:47:33.078Z,95241.80
2018-12-05T07:50:01.846Z,95248.59
2018-12-05T07:52:30.590Z,95252.96
2018-12-05T07:54:59.266Z,95277.30
2018-12-05T07:57:27.955Z,95268.86
2018-12-05T07:59:56.636Z,95258.97
2018-12-05T08:02:25.350Z,95265.34
2018-12-05T08:04:54.031Z,95285.88
2018-12-05T08:07:22.813Z,95274.67
2018-12-05T08:09:51.523Z,95273.36
2018-12-05T08:12:20.264Z,95297.91
2018-12-05T08:14:49.011Z,95290.28
2018-12-05T08:17:17.772Z,95296.77
2018-12-05T08:19:48.204Z,95290.11
2018-12-05T08:22:17.332Z,95302.80
2018-12-05T08:24:46.054Z,95297.39
2018-12-05T08:27:14.810Z,95291.92
2018-12-05T08:29:43.552Z,95287.66
2018-12-05T08:32:12.366Z,95289.90
2018-12-05T08:34:41.142Z,95306.81
2018-12-05T08:37:09.862Z,95306.47
2018-12-05T08:39:38.654Z,95304.02
2018-12-05T08:42:07.422Z,95302.84
2018-12-05T08:44:36.282Z,95308.83
2018-12-05T08:47:04.961Z,95290.48
2018-12-05T08:49:33.719Z,95313.17
2018-12-05T08:52:02.478Z,95314.95
2018-12-05T08:54:31.450Z,95330.41
2018-12-05T08:57:00.165Z,95307.71
2018-12-05T08:59:28.963Z,95296.86
2018-12-05T09:01:57.703Z,95316.88
2018-12-05T09:04:26.541Z,95310.22
2018-12-05T09:06:55.272Z,95308.16
2018-12-05T09:09:24.019Z,95312.72
2018-12-05T09:11:52.843Z,95304.23
2018-12-05T09:14:28.586Z,95309.97
2018-12-05T09:16:52.348Z,95311.42
2018-12-05T09:19:21.088Z,95302.06
2018-12-05T09:21:50.002Z,95304.35
2018-12-05T09:24:18.706Z,95329.14
2018-12-05T09:26:47.475Z,95292.17
2018-12-05T09:29:16.171Z,95292.97
2018-12-05T09:31:45.354Z,95312.16
2018-12-05T09:34:14.426Z,95308.23
2018-12-05T09:36:43.184Z,95302.91
2018-12-05T09:39:11.949Z,95310.44
2018-12-05T09:41:40.737Z,95296.55
2018-12-05T09:44:09.407Z,95306.80
2018-12-05T09:46:38.148Z,95317.55
2018-12-05T09:49:06.970Z,95318.66
2018-12-05T09:51:35.807Z,95315.27
2018-12-05T09:54:04.576Z,95309.59
2018-12-05T09:56:33.351Z,95316.42
2018-12-05T09:59:02.104Z,95288.88
2018-12-05T10:01:30.858Z,95318.47
2018-12-05T10:03:59.609Z,95315.17
2018-12-05T10:06:28.304Z,95309.84
2018-12-05T10:08:57.028Z,95313.78
2018-12-05T10:11:25.828Z,95318.80
2018-12-05T10:13:54.526Z,95316.06
2018-12-05T10:16:23.368Z,95328.28
2018-12-05T10:18:52.137Z,95322.56
2018-12-05T10:21:20.919Z,95325.66
2018-12-05T10:23:49.771Z,95324.00
2018-12-05T10:26:18.683Z,95337.22
2018-12-05T10:28:47.996Z,95321.27
2018-12-05T10:31:16.846Z,95331.99
2018-12-05T10:33:45.584Z,95319.31
2018-12-05T10:36:14.375Z,95317.70
2018-12-05T10:38:43.064Z,95326.78
2018-12-05T10:41:11.876Z,95333.20
2018-12-05T10:43:41.139Z,95325.58
2018-12-05T10:46:10.157Z,95327.59
2018-12-05T10:48:40.599Z,95330.12
2018-12-05T10:51:09.791Z,95326.52
2018-12-05T10:53:38.978Z,95322.11
2018-12-05T10:56:08.263Z,95314.28
2018-12-05T10:58:37.053Z,95315.76
2018-12-05T11:01:11.060Z,95315.91
2018-12-05T11:03:39.783Z,95315.48
2018-12-05T11:06:13.751Z,95305.20
2018-12-05T11:09:46.467Z,95312.64
2018-12-05T11:12:20.409Z,95312.98
2018-12-05T11:14:54.454Z,95298.70
2018-12-05T11:17:29.556Z,95297.55
2018-12-05T11:20:02.407Z,95293.63
2018-12-05T11:23:36.036Z,95289.57
2018-12-05T11:26:11.830Z,95319.93
2018-12-05T11:28:40.567Z,95306.14
2018-12-05T11:31:09.819Z,95309.62
2018-12-05T11:33:38.613Z,95310.05
2018-12-05T11:36:08.085Z,95306.33
2018-12-05T11:38:36.853Z,95344.52
2018-12-05T11:41:05.644Z,95318.11
2018-12-05T11:43:34.529Z,95313.40
2018-12-05T11:46:03.585Z,95323.50
2018-12-05T11:48:32.363Z,95316.14
2018-12-05T11:51:01.111Z,95318.11
2018-12-05T11:53:29.814Z,95324.91
2018-12-05T11:55:58.558Z,95314.66
2018-12-05T11:58:27.797Z,95328.51
2018-12-05T12:00:57.724Z,95325.09
2018-12-05T12:03:26.582Z,95330.78
2018-12-05T12:05:55.329Z,95338.39
2018-12-05T12:08:24.082Z,95346.48
2018-12-05T12:10:53.417Z,95315.78
2018-12-05T12:13:22.125Z,95326.80
2018-12-05T12:15:50.857Z,95334.41
2018-12-05T12:18:19.577Z,95329.55
2018-12-05T12:20:48.324Z,95336.72
2018-12-05T12:23:17.058Z,95331.70
2018-12-05T12:25:45.843Z,95331.03
2018-12-05T12:28:14.661Z,95343.94
2018-12-05T12:30:43.465Z,95334.52
2018-12-05T12:33:12.191Z,95346.02
2018-12-05T12:35:41.038Z,95358.23
2018-12-05T12:38:09.928Z,95349.28
2018-12-05T12:40:38.666Z,95367.25
2018-12-05T12:43:07.444Z,95355.35
2018-12-05T12:45:36.184Z,95353.70
2018-12-05T12:48:05.587Z,95361.50
2018-12-05T12:50:34.320Z,95361.94
2018-12-05T12:53:03.013Z,95354.55
2018-12-05T12:55:31.750Z,95358.61
2018-12-05T12:58:00.493Z,95364.06
2018-12-05T13:00:29.355Z,95363.45
2018-12-05T13:02:58.126Z,95375.81
2018-12-05T13:05:27.967Z,95363.41
2018-12-05T13:07:56.756Z,95378.50
2018-12-05T13:10:25.612Z,95364.64
2018-12-05T13:12:55.240Z,95381.18
2018-12-05T13:15:24.297Z,95374.69
2018-12-05T13:17:59.664Z,95373.80
2018-12-05T13:20:28.825Z,95375.22
2018-12-05T13:22:57.797Z,95388.32
2018-12-05T13:25:26.621Z,95387.67
2018-12-05T13:27:55.344Z,95375.30
2018-12-05T13:30:24.218Z,95382.95
2018-12-05T13:32:53.167Z,95380.22
2018-12-05T13:35:21.919Z,95373.73
2018-12-05T13:37:50.639Z,95399.69
2018-12-05T13:40:19.461Z,95385.19
2018-12-05T13:42:48.238Z,95383.76
2018-12-05T13:45:17.464Z,95381.16
2018-12-05T13:47:46.272Z,95369.40
2018-12-05T13:50:15.999Z,95382.18
2018-12-05T13:52:45.156Z,95371.60
2018-12-05T13:55:14.759Z,95369.69
2018-12-05T13:57:43.533Z,95384.22
2018-12-05T14:00:12.338Z,95364.10
2018-12-05T14:02:41.172Z,95375.95
2018-12-05T14:05:10.085Z,95381.36
2018-12-05T14:07:38.980Z,95385.65
2018-12-05T14:10:09.604Z,95400.48
2018-12-05T14:12:39.433Z,95388.27
2018-12-05T14:15:10.254Z,95393.46
2018-12-05T14:17:39.058Z,95389.68
2018-12-05T14:20:09.534Z,95404.63
2018-12-05T14:22:38.310Z,95394.39
2018-12-05T14:25:08.756Z,95412.47
2018-12-05T14:27:37.863Z,95399.92
2018-12-05T14:30:09.724Z,95411.79
2018-12-05T14:32:38.531Z,95408.58
2018-12-05T14:35:07.738Z,95420.09
2018-12-05T14:37:36.501Z,95442.14
2018-12-05T14:40:06.409Z,95436.92
2018-12-05T14:42:35.094Z,95438.22
2018-12-05T14:45:04.346Z,95439.73
2018-12-05T14:47:33.537Z,95441.30
2018-12-05T14:50:02.312Z,95437.81
2018-12-05T14:52:31.012Z,95427.20
2018-12-05T14:54:59.746Z,95432.29
2018-12-05T14:57:28.501Z,95431.81
2018-12-05T14:59:57.243Z,95412.50
2018-12-05T15:02:25.952Z,95425.12
2018-12-05T15:04:54.723Z,95418.70
2018-12-05T15:07:23.481Z,95417.66
2018-12-05T15:09:52.299Z,95424.89
2018-12-05T15:12:21.047Z,95430.14
2018-12-05T15:14:49.825Z,95425.67
2018-12-05T15:17:18.555Z,95434.98
2018-12-05T15:19:47.297Z,95432.45
2018-12-05T15:22:16.194Z,95437.77
2018-12-05T15:24:45.986Z,95441.37
2018-12-05T15:27:14.831Z,95442.39
2018-12-05T15:29:43.633Z,95442.42
2018-12-05T15:32:12.922Z,95439.36
2018-12-05T15:34:41.837Z,95447.20
2018-12-05T15:37:10.642Z,95450.00
2018-12-05T15:39:39.391Z,95464.84
2018-12-05T15:42:08.134Z,95447.85
2018-12-05T15:44:36.894Z,95460.47
2018-12-05T15:47:05.643Z,95471.70
2018-12-05T15:49:34.588Z,95457.47
2018-12-05T15:52:03.348Z,95465.37
2018-12-05T15:54:32.135Z,95461.80
2018-12-05T15:57:00.900Z,95463.95
2018-12-05T15:59:29.681Z,95470.98
2018-12-05T16:01:58.516Z,95477.33
2018-12-05T16:04:27.257Z,95463.88
2018-12-05T16:06:56.014Z,95452.42
2018-12-05T16:09:24.741Z,95450.29
2018-12-05T16:11:53.541Z,95464.93
2018-12-05T16:14:22.256Z,95465.00
2018-12-05T16:16:51.083Z,95460.63
2018-12-05T16:19:19.804Z,95467.97
2018-12-05T16:21:48.491Z,95477.73
2018-12-05T16:24:17.198Z,95466.37
2018-12-05T16:26:45.991Z,95470.12
2018-12-05T16:29:14.769Z,95466.58
2018-12-05T16:31:43.503Z,95471.29
2018-12-05T16:34:12.313Z,95475.31
2018-12-05T16:36:41.055Z,95479.00
2018-12-05T16:39:10.415Z,95490.73
2018-12-05T16:41:39.471Z,95484.05
2018-12-05T16:44:12.879Z,95485.34
2018-12-05T16:46:39.061Z,95486.38
2018-12-05T16:49:07.900Z,95494.02
2018-12-05T16:51:36.829Z,95498.11
2018-12-05T16:54:06.230Z,95487.88
2018-12-05T16:56:34.989Z,95503.94
2018-12-05T16:59:04.266Z,95498.20
2018-12-05T17:01:33.079Z,95503.31
2018-12-05T17:04:02.278Z,95498.95
2018-12-05T17:06:31.059Z,95489.67
2018-12-05T17:09:01.404Z,95491.13
2018-12-05T17:11:30.871Z,95509.14
2018-12-05T17:13:59.575Z,95518.87
2018-12-05T17:16:28.343Z,95506.25
2018-12-05T17:18:57.064Z,95499.31
2018-12-05T17:21:25.789Z,95511.33
2018-12-05T17:24:03.423Z,95521.17
2018-12-05T17:26:32.388Z,95524.72
2018-12-05T17:29:01.156Z,95521.30
2018-12-05T17:31:29.907Z,95522.64
2018-12-05T17:33:58.692Z,95517.80
2018-12-05T17:36:27.530Z,95531.59
2018-12-05T17:38:56.329Z,95525.67
2018-12-05T17:41:25.110Z,95525.68
2018-12-05T17:43:53.881Z,95532.89
2018-12-05T17:46:22.678Z,95529.43
2018-12-05T17:48:51.460Z,95522.13
2018-12-05T17:51:20.254Z,95534.06
2018-12-05T17:53:49.022Z,95532.51
2018-12-05T17:56:18.241Z,95532.42
2018-12-05T17:58:47.039Z,95535.50
2018-12-05T18:01:15.881Z,95540.94
2018-12-05T18:03:44.596Z,95525.13
2018-12-05T18:06:13.353Z,95530.91
2018-12-05T18:08:42.155Z,95522.48
2018-12-05T18:11:10.969Z,95531.47
2018-12-05T18:13:39.754Z,95536.79
2018-12-05T18:16:08.632Z,95529.02
2018-12-05T18:18:37.463Z,95536.31
2018-12-05T18:21:06.195Z,95526.50
2018-12-05T18:23:34.932Z,95529.91
2018-12-05T18:26:03.757Z,95536.92
2018-12-05T18:28:32.531Z,95530.86
2018-12-05T18:31:01.477Z,95533.45
2018-12-05T18:33:30.670Z,95531.73
2018-12-05T18:35:59.403Z,95534.63
2018-12-05T18:38:29.133Z,95547.45
2018-12-05T18:40:57.937Z,95540.41
2018-12-05T18:43:26.878Z,95538.69
2018-12-05T18:45:55.898Z,95546.77
2018-12-05T18:48:25.175Z,95549.70
2018-12-05T18:50:53.895Z,95554.66
2018-12-05T18:53:22.812Z,95559.63
2018-12-05T18:55:51.570Z,95555.06
2018-12-05T18:58:20.369Z,95564.81
2018-12-05T19:00:50.326Z,95557.39
2018-12-05T19:03:19.067Z,95559.89
2018-12-05T19:05:47.878Z,95559.16
2018-12-05T19:08:17.114Z,95562.70
2018-12-05T19:10:46.268Z,95561.27
2018-12-05T19:13:15.482Z,95567.54
2018-12-05T19:15:45.328Z,95561.88
2018-12-05T19:18:14.707Z,95568.70
2018-12-05T19:20:43.911Z,95570.08
2018-12-05T19:23:13.310Z,95571.08
2018-12-05T19:25:42.783Z,95576.21
2018-12-05T19:28:12.284Z,95579.01
2018-12-05T19:30:41.859Z,95582.73
2018-12-05T19:33:11.108Z,95575.30
2018-12-05T19:35:40.399Z,95573.19
2018-12-05T19:38:09.139Z,95575.64
2018-12-05T19:40:38.082Z,95581.50
2018-12-05T19:43:07.012Z,95581.98
2018-12-05T19:45:36.009Z,95577.89
2018-12-05T19:48:04.776Z,95583.23
2018-12-05T19:50:33.600Z,95583.02
2018-12-05T19:53:02.464Z,95577.96
2018-12-05T19:55:31.374Z,95583.81
2018-12-05T19:58:00.164Z,95579.84
2018-12-05T20:00:29.481Z,95586.39
2018-12-05T20:02:58.300Z,95582.63
2018-12-05T20:05:28.077Z,95589.00
2018-12-05T20:07:58.108Z,95591.97
2018-12-05T20:10:28.500Z,95585.59
2018-12-05T20:12:57.424Z,95586.94
2018-12-05T20:15:26.498Z,95593.61
2018-12-05T20:17:56.160Z,95598.28
2018-12-05T20:20:32.457Z,95594.54
2018-12-05T20:23:03.721Z,95583.40
2018-12-05T20:25:32.682Z,95588.22
2018-12-05T20:28:01.599Z,95591.95
2018-12-05T20:30:34.258Z,95591.60
2018-12-05T20:33:03.134Z,95598.17
2018-12-05T20:35:31.976Z,95594.95
2018-12-05T20:38:00.874Z,95596.25
2018-12-05T20:40:29.644Z,95603.54
2018-12-05T20:42:58.540Z,95600.98
2018-12-05T20:45:27.341Z,95601.45
2018-12-05T20:47:56.708Z,95604.89
2018-12-05T20:50:27.491Z,95607.48
2018-12-05T20:52:57.217Z,95602.18
2018-12-05T20:55:26.128Z,95609.44
2018-12-05T20:57:54.955Z,95608.74
2018-12-05T21:00:23.785Z,95611.81
2018-12-05T21:02:52.992Z,95612.25
2018-12-05T21:05:21.881Z,95609.54
2018-12-05T21:07:50.823Z,95617.30
2018-12-05T21:10:19.638Z,95613.73
2018-12-05T21:12:48.415Z,95621.76
2018-12-05T21:15:17.226Z,95616.45
2018-12-05T21:17:45.945Z,95614.34
2018-12-05T21:20:14.683Z,95609.57
2018-12-05T21:22:47.117Z,95622.17
2018-12-05T21:25:14.232Z,95613.89
2018-12-05T21:27:43.025Z,95607.05
2018-12-05T21:30:13.542Z,95606.48
2018-12-05T21:32:42.257Z,95611.77
2018-12-05T21:35:10.980Z,95611.52
2018-12-05T21:37:39.783Z,95615.74
2018-12-05T21:40:09.195Z,95614.97
2018-12-05T21:42:38.002Z,95612.97
2018-12-05T21:45:07.658Z,95605.94
2018-12-05T21:47:36.484Z,95597.09
2018-12-05T21:50:05.970Z,95605.97
2018-12-05T21:52:34.726Z,95605.38
2018-12-05T21:55:04.017Z,95616.64
2018-12-05T21:57:32.775Z,95612.00
2018-12-05T22:00:01.584Z,95619.77
2018-12-05T22:02:30.340Z,95611.59
2018-12-05T22:04:59.354Z,95615.47
2018-12-05T22:07:28.102Z,95611.77
2018-12-05T22:09:56.942Z,95613.92
2018-12-05T22:12:25.707Z,95625.70
2018-12-05T22:14:54.466Z,95618.88
2018-12-05T22:17:23.247Z,95624.06
2018-12-05T22:19:52.167Z,95611.88
2018-12-05T22:22:21.057Z,95619.13
2018-12-05T22:24:49.848Z,95619.73
2018-12-05T22:27:18.610Z,95604.36
2018-12-05T22:29:47.352Z,95612.60
2018-12-05T22:32:16.478Z,95607.11
2018-12-05T22:34:45.274Z,95612.60
2018-12-05T22:37:14.041Z,95611.50
2018-12-05T22:39:42.832Z,95614.52
2018-12-05T22:42:11.591Z,95618.63
2018-12-05T22:44:40.406Z,95605.31
2018-12-05T22:47:09.151Z,95620.98
2018-12-05T22:49:37.861Z,95619.34
2018-12-05T22:52:06.539Z,95616.50
2018-12-05T22:54:35.314Z,95622.25
2018-12-05T22:57:12.671Z,95625.09
2018-12-05T22:59:41.855Z,95627.91
2018-12-05T23:02:11.216Z,95627.30
2018-12-05T23:04:39.912Z,95618.37
2018-12-05T23:07:08.664Z,95628.91
2018-12-05T23:09:37.434Z,95632.67
2018-12-05T23:12:06.205Z,95630.84
2018-12-05T23:14:35.017Z,95628.40
2018-12-05T23:17:04.153Z,95633.10
2018-12-05T23:19:32.904Z,95638.11
2018-12-05T23:22:01.719Z,95635.30
2018-12-05T23:24:30.503Z,95631.77
2018-12-05T23:26:59.290Z,95629.62
2018-12-05T23:29:28.569Z,95636.44
2018-12-05T23:31:57.339Z,95640.70
2018-12-05T23:34:26.029Z,95634.83
2018-12-05T23:36:54.757Z,95635.30
2018-12-05T23:39:23.467Z,95638.33
2018-12-05T23:41:52.211Z,95645.88
2018-12-05T23:44:20.923Z,95637.19
2018-12-05T23:46:49.639Z,95637.94
2018-12-05T23:49:18.372Z,95644.45
2018-12-05T23:51:56.021Z,95641.94
2018-12-05T23:54:25.032Z,95648.05
2018-12-05T23:56:53.812Z,95649.23
2018-12-05T23:59:22.514Z,95655.81
